sensor_id;sensor_type;location;lat;lon;timestamp;temperature;humidity
22917;DHT22;11624;53.250;7.456;2022-10-31T00:01:35;19.79;60.37
22917;DHT22;11624;53.250;7.456;2022-10-31T00:04:03;19.58;61.01
22917;DHT22;11624;53.250;7.456;2022-10-31T00:06:32;19.58;60.89
22917;DHT22;11624;53.250;7.456;2022-10-31T00:09:03;19.57;60.70
22917;DHT22;11624;53.250;7.456;2022-10-31T00:11:31;19.44;61.18
22917;DHT22;11624;53.250;7.456;2022-10-31T00:14:00;19.46;60.89
22917;DHT22;11624;53.250;7.456;2022-10-31T00:16:29;19.38;61.03
22917;DHT22;11624;53.250;7.456;2022-10-31T00:18:59;19.45;60.59
22917;DHT22;11624;53.250;7.456;2022-10-31T00:21:28;19.41;60.70
22917;DHT22;11624;53.250;7.456;2022-10-31T00:23:57;19.40;60.50
22917;DHT22;11624;53.250;7.456;2022-10-31T00:26:28;19.38;60.32
22917;DHT22;11624;53.250;7.456;2022-10-31T00:28:58;19.33;60.34
22917;DHT22;11624;53.250;7.456;2022-10-31T00:31:26;19.31;60.38
22917;DHT22;11624;53.250;7.456;2022-10-31T00:33:54;19.27;60.44
22917;DHT22;11624;53.250;7.456;2022-10-31T00:36:25;19.21;60.72
22917;DHT22;11624;53.250;7.456;2022-10-31T00:38:53;19.22;60.48
22917;DHT22;11624;53.250;7.456;2022-10-31T00:41:21;19.17;60.47
22917;DHT22;11624;53.250;7.456;2022-10-31T00:43:50;19.15;60.45
22917;DHT22;11624;53.250;7.456;2022-10-31T00:46:18;19.03;60.78
22917;DHT22;11624;53.250;7.456;2022-10-31T00:48:48;19.02;60.64
22917;DHT22;11624;53.250;7.456;2022-10-31T00:51:16;19.01;60.42
22917;DHT22;11624;53.250;7.456;2022-10-31T00:53:44;18.94;60.73
22917;DHT22;11624;53.250;7.456;2022-10-31T00:56:12;18.88;60.99
22917;DHT22;11624;53.250;7.456;2022-10-31T00:58:41;18.84;61.00
22917;DHT22;11624;53.250;7.456;2022-10-31T01:01:10;18.74;61.19
22917;DHT22;11624;53.250;7.456;2022-10-31T01:03:39;18.73;61.17
22917;DHT22;11624;53.250;7.456;2022-10-31T01:06:12;18.73;60.85
22917;DHT22;11624;53.250;7.456;2022-10-31T01:08:40;18.73;60.73
22917;DHT22;11624;53.250;7.456;2022-10-31T01:11:13;18.65;60.89
22917;DHT22;11624;53.250;7.456;2022-10-31T01:13:42;18.66;60.80
22917;DHT22;11624;53.250;7.456;2022-10-31T01:16:13;18.66;60.71
22917;DHT22;11624;53.250;7.456;2022-10-31T01:18:42;18.66;60.86
22917;DHT22;11624;53.250;7.456;2022-10-31T01:21:12;18.62;61.12
22917;DHT22;11624;53.250;7.456;2022-10-31T01:23:41;18.62;61.15
22917;DHT22;11624;53.250;7.456;2022-10-31T01:26:13;18.59;61.24
22917;DHT22;11624;53.250;7.456;2022-10-31T01:28:45;18.57;61.15
22917;DHT22;11624;53.250;7.456;2022-10-31T01:31:16;18.56;61.20
22917;DHT22;11624;53.250;7.456;2022-10-31T01:33:44;18.54;61.15
22917;DHT22;11624;53.250;7.456;2022-10-31T01:36:15;18.56;60.99
22917;DHT22;11624;53.250;7.456;2022-10-31T01:38:44;18.48;61.15
22917;DHT22;11624;53.250;7.456;2022-10-31T01:41:14;18.42;61.25
22917;DHT22;11624;53.250;7.456;2022-10-31T01:43:45;18.41;61.16
22917;DHT22;11624;53.250;7.456;2022-10-31T01:46:16;18.43;60.84
22917;DHT22;11624;53.250;7.456;2022-10-31T01:48:45;18.47;60.89
22917;DHT22;11624;53.250;7.456;2022-10-31T01:51:15;18.48;60.65
22917;DHT22;11624;53.250;7.456;2022-10-31T01:53:44;18.46;60.43
22917;DHT22;11624;53.250;7.456;2022-10-31T01:56:15;18.33;60.82
22917;DHT22;11624;53.250;7.456;2022-10-31T01:58:45;18.33;60.96
22917;DHT22;11624;53.250;7.456;2022-10-31T02:01:17;18.32;60.89
22917;DHT22;11624;53.250;7.456;2022-10-31T02:03:46;18.32;60.99
22917;DHT22;11624;53.250;7.456;2022-10-31T02:06:23;18.25;61.02
22917;DHT22;11624;53.250;7.456;2022-10-31T02:08:57;18.24;61.36
22917;DHT22;11624;53.250;7.456;2022-10-31T02:11:27;18.20;61.50
22917;DHT22;11624;53.250;7.456;2022-10-31T02:13:56;18.20;61.54
22917;DHT22;11624;53.250;7.456;2022-10-31T02:16:27;18.22;61.42
22917;DHT22;11624;53.250;7.456;2022-10-31T02:18:55;18.24;61.38
22917;DHT22;11624;53.250;7.456;2022-10-31T02:21:30;18.24;61.09
22917;DHT22;11624;53.250;7.456;2022-10-31T02:24:40;18.24;61.10
22917;DHT22;11624;53.250;7.456;2022-10-31T02:27:21;18.23;60.98
22917;DHT22;11624;53.250;7.456;2022-10-31T02:30:05;18.18;61.15
22917;DHT22;11624;53.250;7.456;2022-10-31T02:35:40;18.21;60.97
22917;DHT22;11624;53.250;7.456;2022-10-31T02:38:20;18.21;61.02
22917;DHT22;11624;53.250;7.456;2022-10-31T02:40:56;18.20;61.14
22917;DHT22;11624;53.250;7.456;2022-10-31T02:43:44;18.22;60.83
22917;DHT22;11624;53.250;7.456;2022-10-31T02:46:23;18.12;61.14
22917;DHT22;11624;53.250;7.456;2022-10-31T02:48:56;18.18;60.57
22917;DHT22;11624;53.250;7.456;2022-10-31T02:51:27;18.12;60.51
22917;DHT22;11624;53.250;7.456;2022-10-31T02:53:55;18.06;60.35
22917;DHT22;11624;53.250;7.456;2022-10-31T02:56:23;18.00;60.63
22917;DHT22;11624;53.250;7.456;2022-10-31T02:58:53;17.96;60.57
22917;DHT22;11624;53.250;7.456;2022-10-31T03:01:35;17.92;60.57
22917;DHT22;11624;53.250;7.456;2022-10-31T03:04:19;17.89;60.98
22917;DHT22;11624;53.250;7.456;2022-10-31T03:06:55;17.93;61.00
22917;DHT22;11624;53.250;7.456;2022-10-31T03:09:28;17.94;60.80
22917;DHT22;11624;53.250;7.456;2022-10-31T03:12:07;17.89;60.73
22917;DHT22;11624;53.250;7.456;2022-10-31T03:14:41;17.90;60.80
22917;DHT22;11624;53.250;7.456;2022-10-31T03:17:15;17.88;60.69
22917;DHT22;11624;53.250;7.456;2022-10-31T03:19:49;17.88;60.86
22917;DHT22;11624;53.250;7.456;2022-10-31T03:22:22;17.85;61.09
22917;DHT22;11624;53.250;7.456;2022-10-31T03:24:52;17.81;61.35
22917;DHT22;11624;53.250;7.456;2022-10-31T03:27:24;17.85;61.11
22917;DHT22;11624;53.250;7.456;2022-10-31T03:29:55;17.85;61.21
22917;DHT22;11624;53.250;7.456;2022-10-31T03:32:27;17.81;61.25
22917;DHT22;11624;53.250;7.456;2022-10-31T03:35:00;17.72;61.66
22917;DHT22;11624;53.250;7.456;2022-10-31T03:37:33;17.73;61.68
22917;DHT22;11624;53.250;7.456;2022-10-31T03:40:03;17.79;61.21
22917;DHT22;11624;53.250;7.456;2022-10-31T03:42:36;17.77;61.13
22917;DHT22;11624;53.250;7.456;2022-10-31T03:45:09;17.76;60.95
22917;DHT22;11624;53.250;7.456;2022-10-31T03:47:40;17.72;60.76
22917;DHT22;11624;53.250;7.456;2022-10-31T03:50:14;17.66;60.41
22917;DHT22;11624;53.250;7.456;2022-10-31T03:52:47;17.62;60.60
22917;DHT22;11624;53.250;7.456;2022-10-31T03:55:20;17.59;60.57
22917;DHT22;11624;53.250;7.456;2022-10-31T03:57:55;17.48;61.11
22917;DHT22;11624;53.250;7.456;2022-10-31T04:00:26;17.47;61.38
22917;DHT22;11624;53.250;7.456;2022-10-31T04:02:59;17.46;61.25
22917;DHT22;11624;53.250;7.456;2022-10-31T04:05:32;17.50;61.16
22917;DHT22;11624;53.250;7.456;2022-10-31T04:08:04;17.45;61.55
22917;DHT22;11624;53.250;7.456;2022-10-31T04:10:33;17.45;61.57
22917;DHT22;11624;53.250;7.456;2022-10-31T04:13:07;17.43;61.70
22917;DHT22;11624;53.250;7.456;2022-10-31T04:15:43;17.43;61.75
22917;DHT22;11624;53.250;7.456;2022-10-31T04:18:12;17.41;61.81
22917;DHT22;11624;53.250;7.456;2022-10-31T04:20:42;17.36;62.11
22917;DHT22;11624;53.250;7.456;2022-10-31T04:23:18;17.40;61.56
22917;DHT22;11624;53.250;7.456;2022-10-31T04:25:48;17.37;62.12
22917;DHT22;11624;53.250;7.456;2022-10-31T04:28:16;17.40;61.80
22917;DHT22;11624;53.250;7.456;2022-10-31T04:30:50;17.37;61.57
22917;DHT22;11624;53.250;7.456;2022-10-31T04:33:19;17.36;61.57
22917;DHT22;11624;53.250;7.456;2022-10-31T04:35:48;17.34;61.31
22917;DHT22;11624;53.250;7.456;2022-10-31T04:38:17;17.30;60.99
22917;DHT22;11624;53.250;7.456;2022-10-31T04:40:45;17.24;61.02
22917;DHT22;11624;53.250;7.456;2022-10-31T04:43:33;17.19;61.00
22917;DHT22;11624;53.250;7.456;2022-10-31T04:46:01;17.17;61.04
22917;DHT22;11624;53.250;7.456;2022-10-31T04:48:30;17.11;61.36
22917;DHT22;11624;53.250;7.456;2022-10-31T04:51:02;17.10;60.95
22917;DHT22;11624;53.250;7.456;2022-10-31T04:53:31;17.07;61.25
22917;DHT22;11624;53.250;7.456;2022-10-31T04:56:19;17.01;61.17
22917;DHT22;11624;53.250;7.456;2022-10-31T04:58:52;17.00;60.96
22917;DHT22;11624;53.250;7.456;2022-10-31T05:01:21;16.96;60.70
22917;DHT22;11624;53.250;7.456;2022-10-31T05:03:49;16.84;60.97
22917;DHT22;11624;53.250;7.456;2022-10-31T05:06:19;16.84;60.47
22917;DHT22;11624;53.250;7.456;2022-10-31T05:08:47;16.77;60.41
22917;DHT22;11624;53.250;7.456;2022-10-31T05:11:15;16.74;60.30
22917;DHT22;11624;53.250;7.456;2022-10-31T05:13:43;16.66;60.34
22917;DHT22;11624;53.250;7.456;2022-10-31T05:16:11;16.62;60.44
22917;DHT22;11624;53.250;7.456;2022-10-31T05:19:05;16.57;60.69
22917;DHT22;11624;53.250;7.456;2022-10-31T05:21:54;16.51;60.65
22917;DHT22;11624;53.250;7.456;2022-10-31T05:24:22;16.50;60.62
22917;DHT22;11624;53.250;7.456;2022-10-31T05:26:51;16.46;60.54
22917;DHT22;11624;53.250;7.456;2022-10-31T05:29:19;16.42;60.46
22917;DHT22;11624;53.250;7.456;2022-10-31T05:31:47;16.39;60.41
22917;DHT22;11624;53.250;7.456;2022-10-31T05:34:44;16.31;60.36
22917;DHT22;11624;53.250;7.456;2022-10-31T05:37:32;16.27;60.44
22917;DHT22;11624;53.250;7.456;2022-10-31T05:40:00;16.24;60.42
22917;DHT22;11624;53.250;7.456;2022-10-31T05:42:34;16.19;60.41
22917;DHT22;11624;53.250;7.456;2022-10-31T05:45:02;16.15;60.45
22917;DHT22;11624;53.250;7.456;2022-10-31T05:47:51;16.11;60.43
22917;DHT22;11624;53.250;7.456;2022-10-31T05:50:38;16.05;60.46
22917;DHT22;11624;53.250;7.456;2022-10-31T05:53:11;16.03;60.43
22917;DHT22;11624;53.250;7.456;2022-10-31T05:55:39;15.99;60.39
22917;DHT22;11624;53.250;7.456;2022-10-31T05:58:11;15.96;60.51
22917;DHT22;11624;53.250;7.456;2022-10-31T06:00:45;15.95;60.51
22917;DHT22;11624;53.250;7.456;2022-10-31T06:03:14;15.92;60.51
22917;DHT22;11624;53.250;7.456;2022-10-31T06:05:47;15.87;60.42
22917;DHT22;11624;53.250;7.456;2022-10-31T06:08:24;15.85;60.50
22917;DHT22;11624;53.250;7.456;2022-10-31T06:10:53;15.83;60.68
22917;DHT22;11624;53.250;7.456;2022-10-31T06:13:42;15.78;60.59
22917;DHT22;11624;53.250;7.456;2022-10-31T06:16:17;15.77;60.53
22917;DHT22;11624;53.250;7.456;2022-10-31T06:18:45;15.75;60.69
22917;DHT22;11624;53.250;7.456;2022-10-31T06:21:14;15.76;60.64
22917;DHT22;11624;53.250;7.456;2022-10-31T06:23:48;15.76;60.65
22917;DHT22;11624;53.250;7.456;2022-10-31T06:26:51;15.74;60.70
22917;DHT22;11624;53.250;7.456;2022-10-31T06:29:20;15.73;61.26
22917;DHT22;11624;53.250;7.456;2022-10-31T06:32:10;15.78;61.55
22917;DHT22;11624;53.250;7.456;2022-10-31T06:34:42;15.86;61.82
22917;DHT22;11624;53.250;7.456;2022-10-31T06:37:11;15.91;61.89
22917;DHT22;11624;53.250;7.456;2022-10-31T06:39:44;16.01;61.82
22917;DHT22;11624;53.250;7.456;2022-10-31T06:42:15;16.05;61.76
22917;DHT22;11624;53.250;7.456;2022-10-31T06:44:43;16.06;61.76
22917;DHT22;11624;53.250;7.456;2022-10-31T06:47:29;16.03;61.79
22917;DHT22;11624;53.250;7.456;2022-10-31T06:50:05;16.05;61.83
22917;DHT22;11624;53.250;7.456;2022-10-31T06:52:34;16.05;61.83
22917;DHT22;11624;53.250;7.456;2022-10-31T06:55:05;16.06;61.80
22917;DHT22;11624;53.250;7.456;2022-10-31T06:57:33;16.05;61.83
22917;DHT22;11624;53.250;7.456;2022-10-31T07:00:02;16.02;61.87
22917;DHT22;11624;53.250;7.456;2022-10-31T07:02:38;16.01;61.93
22917;DHT22;11624;53.250;7.456;2022-10-31T07:05:06;15.96;62.09
22917;DHT22;11624;53.250;7.456;2022-10-31T07:07:34;15.88;62.32
22917;DHT22;11624;53.250;7.456;2022-10-31T07:10:04;15.86;62.37
22917;DHT22;11624;53.250;7.456;2022-10-31T07:12:55;15.91;62.24
22917;DHT22;11624;53.250;7.456;2022-10-31T07:15:25;15.99;62.10
22917;DHT22;11624;53.250;7.456;2022-10-31T07:17:59;16.04;61.84
22917;DHT22;11624;53.250;7.456;2022-10-31T07:20:27;16.08;61.96
22917;DHT22;11624;53.250;7.456;2022-10-31T07:22:55;16.10;61.96
22917;DHT22;11624;53.250;7.456;2022-10-31T07:25:25;16.14;61.86
22917;DHT22;11624;53.250;7.456;2022-10-31T07:28:20;16.17;61.71
22917;DHT22;11624;53.250;7.456;2022-10-31T07:30:50;16.20;61.61
22917;DHT22;11624;53.250;7.456;2022-10-31T07:33:20;16.22;61.54
22917;DHT22;11624;53.250;7.456;2022-10-31T07:36:06;16.21;61.47
22917;DHT22;11624;53.250;7.456;2022-10-31T07:38:35;16.20;61.44
22917;DHT22;11624;53.250;7.456;2022-10-31T07:41:05;16.20;61.46
22917;DHT22;11624;53.250;7.456;2022-10-31T07:43:38;16.14;61.63
22917;DHT22;11624;53.250;7.456;2022-10-31T07:46:28;16.17;61.57
22917;DHT22;11624;53.250;7.456;2022-10-31T07:49:31;16.12;61.72
22917;DHT22;11624;53.250;7.456;2022-10-31T07:52:28;16.00;62.28
22917;DHT22;11624;53.250;7.456;2022-10-31T07:55:19;16.10;62.22
22917;DHT22;11624;53.250;7.456;2022-10-31T07:57:57;16.10;62.46
22917;DHT22;11624;53.250;7.456;2022-10-31T08:00:27;16.21;62.90
22917;DHT22;11624;53.250;7.456;2022-10-31T08:02:57;16.33;62.98
22917;DHT22;11624;53.250;7.456;2022-10-31T08:05:51;16.46;62.91
22917;DHT22;11624;53.250;7.456;2022-10-31T08:08:48;16.45;63.03
22917;DHT22;11624;53.250;7.456;2022-10-31T08:11:17;16.52;62.59
22917;DHT22;11624;53.250;7.456;2022-10-31T08:13:48;16.51;62.15
22917;DHT22;11624;53.250;7.456;2022-10-31T08:16:16;16.43;62.28
22917;DHT22;11624;53.250;7.456;2022-10-31T08:18:57;16.43;62.28
22917;DHT22;11624;53.250;7.456;2022-10-31T08:21:27;16.45;62.53
22917;DHT22;11624;53.250;7.456;2022-10-31T08:23:56;16.51;62.40
22917;DHT22;11624;53.250;7.456;2022-10-31T08:26:25;16.50;62.33
22917;DHT22;11624;53.250;7.456;2022-10-31T08:28:56;16.49;62.57
22917;DHT22;11624;53.250;7.456;2022-10-31T08:31:27;16.61;62.86
22917;DHT22;11624;53.250;7.456;2022-10-31T08:34:24;16.69;62.77
22917;DHT22;11624;53.250;7.456;2022-10-31T08:37:12;16.82;62.79
22917;DHT22;11624;53.250;7.456;2022-10-31T08:39:48;16.86;62.75
22917;DHT22;11624;53.250;7.456;2022-10-31T08:42:16;16.98;62.84
22917;DHT22;11624;53.250;7.456;2022-10-31T08:44:45;17.25;62.95
22917;DHT22;11624;53.250;7.456;2022-10-31T08:47:13;17.53;63.24
22917;DHT22;11624;53.250;7.456;2022-10-31T08:49:42;17.78;63.14
22917;DHT22;11624;53.250;7.456;2022-10-31T08:52:10;17.96;62.21
22917;DHT22;11624;53.250;7.456;2022-10-31T08:54:41;18.21;62.21
22917;DHT22;11624;53.250;7.456;2022-10-31T08:57:41;18.72;63.11
22917;DHT22;11624;53.250;7.456;2022-10-31T09:00:12;19.14;62.05
22917;DHT22;11624;53.250;7.456;2022-10-31T09:02:40;19.67;60.06
22917;DHT22;11624;53.250;7.456;2022-10-31T09:05:08;19.83;59.46
22917;DHT22;11624;53.250;7.456;2022-10-31T09:07:36;20.16;59.35
22917;DHT22;11624;53.250;7.456;2022-10-31T09:10:05;20.65;58.46
22917;DHT22;11624;53.250;7.456;2022-10-31T09:12:35;21.05;58.58
22917;DHT22;11624;53.250;7.456;2022-10-31T09:15:25;21.70;57.75
22917;DHT22;11624;53.250;7.456;2022-10-31T09:18:18;22.14;53.97
22917;DHT22;11624;53.250;7.456;2022-10-31T09:20:56;22.34;52.27
22917;DHT22;11624;53.250;7.456;2022-10-31T09:23:26;22.60;52.05
22917;DHT22;11624;53.250;7.456;2022-10-31T09:25:55;23.05;51.14
22917;DHT22;11624;53.250;7.456;2022-10-31T09:28:35;23.29;49.40
22917;DHT22;11624;53.250;7.456;2022-10-31T09:31:09;23.69;50.08
22917;DHT22;11624;53.250;7.456;2022-10-31T09:33:46;24.20;48.51
22917;DHT22;11624;53.250;7.456;2022-10-31T09:36:43;24.42;47.14
22917;DHT22;11624;53.250;7.456;2022-10-31T09:39:17;24.94;47.38
22917;DHT22;11624;53.250;7.456;2022-10-31T09:42:18;25.62;46.92
22917;DHT22;11624;53.250;7.456;2022-10-31T09:45:01;26.15;43.13
22917;DHT22;11624;53.250;7.456;2022-10-31T09:47:44;26.26;42.84
22917;DHT22;11624;53.250;7.456;2022-10-31T09:50:42;26.39;42.23
22917;DHT22;11624;53.250;7.456;2022-10-31T09:53:36;26.36;40.78
22917;DHT22;11624;53.250;7.456;2022-10-31T09:56:08;26.21;41.02
22917;DHT22;11624;53.250;7.456;2022-10-31T09:58:43;26.19;40.52
22917;DHT22;11624;53.250;7.456;2022-10-31T10:01:30;26.09;41.76
22917;DHT22;11624;53.250;7.456;2022-10-31T10:04:16;26.34;41.17
22917;DHT22;11624;53.250;7.456;2022-10-31T10:06:56;26.65;41.01
22917;DHT22;11624;53.250;7.456;2022-10-31T10:09:57;27.19;39.31
22917;DHT22;11624;53.250;7.456;2022-10-31T10:12:38;27.31;38.54
22917;DHT22;11624;53.250;7.456;2022-10-31T10:15:26;27.47;38.34
22917;DHT22;11624;53.250;7.456;2022-10-31T10:18:05;27.70;38.46
22917;DHT22;11624;53.250;7.456;2022-10-31T10:20:43;28.18;39.04
22917;DHT22;11624;53.250;7.456;2022-10-31T10:23:35;28.45;36.24
22917;DHT22;11624;53.250;7.456;2022-10-31T10:26:13;28.41;35.45
22917;DHT22;11624;53.250;7.456;2022-10-31T10:28:45;28.24;35.92
22917;DHT22;11624;53.250;7.456;2022-10-31T10:31:15;28.05;36.04
22917;DHT22;11624;53.250;7.456;2022-10-31T10:33:54;27.65;36.02
22917;DHT22;11624;53.250;7.456;2022-10-31T10:36:28;27.31;36.90
22917;DHT22;11624;53.250;7.456;2022-10-31T10:39:00;27.05;37.46
22917;DHT22;11624;53.250;7.456;2022-10-31T10:41:32;26.79;38.59
22917;DHT22;11624;53.250;7.456;2022-10-31T10:44:01;26.35;38.91
22917;DHT22;11624;53.250;7.456;2022-10-31T10:46:34;26.08;39.42
22917;DHT22;11624;53.250;7.456;2022-10-31T10:49:28;25.93;39.95
22917;DHT22;11624;53.250;7.456;2022-10-31T10:52:13;25.88;40.67
22917;DHT22;11624;53.250;7.456;2022-10-31T10:55:12;25.67;40.50
22917;DHT22;11624;53.250;7.456;2022-10-31T10:57:51;25.67;40.86
22917;DHT22;11624;53.250;7.456;2022-10-31T11:00:22;25.73;40.61
22917;DHT22;11624;53.250;7.456;2022-10-31T11:02:51;25.73;40.91
22917;DHT22;11624;53.250;7.456;2022-10-31T11:05:24;25.73;41.18
22917;DHT22;11624;53.250;7.456;2022-10-31T11:07:53;26.02;41.72
22917;DHT22;11624;53.250;7.456;2022-10-31T11:10:22;26.25;41.05
22917;DHT22;11624;53.250;7.456;2022-10-31T11:13:20;26.71;40.71
22917;DHT22;11624;53.250;7.456;2022-10-31T11:15:56;27.10;40.03
22917;DHT22;11624;53.250;7.456;2022-10-31T11:18:26;27.82;38.54
22917;DHT22;11624;53.250;7.456;2022-10-31T11:20:57;28.48;37.69
22917;DHT22;11624;53.250;7.456;2022-10-31T11:23:28;28.74;35.63
22917;DHT22;11624;53.250;7.456;2022-10-31T11:25:57;28.40;34.79
22917;DHT22;11624;53.250;7.456;2022-10-31T11:28:27;27.91;36.09
22917;DHT22;11624;53.250;7.456;2022-10-31T11:30:58;27.50;35.78
22917;DHT22;11624;53.250;7.456;2022-10-31T11:33:30;26.94;36.55
22917;DHT22;11624;53.250;7.456;2022-10-31T11:36:00;26.58;37.79
22917;DHT22;11624;53.250;7.456;2022-10-31T11:38:33;26.18;38.55
22917;DHT22;11624;53.250;7.456;2022-10-31T11:41:09;25.80;39.43
22917;DHT22;11624;53.250;7.456;2022-10-31T11:43:46;25.38;40.25
22917;DHT22;11624;53.250;7.456;2022-10-31T11:46:19;24.89;41.42
22917;DHT22;11624;53.250;7.456;2022-10-31T11:48:50;24.51;42.16
22917;DHT22;11624;53.250;7.456;2022-10-31T11:51:24;24.13;43.10
22917;DHT22;11624;53.250;7.456;2022-10-31T11:53:56;23.90;44.15
22917;DHT22;11624;53.250;7.456;2022-10-31T11:56:38;23.88;44.34
22917;DHT22;11624;53.250;7.456;2022-10-31T11:59:23;23.91;44.76
22917;DHT22;11624;53.250;7.456;2022-10-31T12:01:52;23.99;45.06
22917;DHT22;11624;53.250;7.456;2022-10-31T12:04:31;24.03;44.74
22917;DHT22;11624;53.250;7.456;2022-10-31T12:07:03;23.82;45.02
22917;DHT22;11624;53.250;7.456;2022-10-31T12:09:35;23.73;45.22
22917;DHT22;11624;53.250;7.456;2022-10-31T12:12:11;23.66;45.22
22917;DHT22;11624;53.250;7.456;2022-10-31T12:14:50;23.68;45.19
22917;DHT22;11624;53.250;7.456;2022-10-31T12:17:21;23.56;45.46
22917;DHT22;11624;53.250;7.456;2022-10-31T12:19:59;23.01;46.86
22917;DHT22;11624;53.250;7.456;2022-10-31T12:22:39;22.85;47.89
22917;DHT22;11624;53.250;7.456;2022-10-31T12:25:26;22.86;47.79
22917;DHT22;11624;53.250;7.456;2022-10-31T12:28:25;22.92;47.66
22917;DHT22;11624;53.250;7.456;2022-10-31T12:31:05;22.71;48.87
22917;DHT22;11624;53.250;7.456;2022-10-31T12:33:53;22.75;48.84
22917;DHT22;11624;53.250;7.456;2022-10-31T12:36:39;22.93;49.01
22917;DHT22;11624;53.250;7.456;2022-10-31T12:39:27;23.12;49.13
22917;DHT22;11624;53.250;7.456;2022-10-31T12:42:05;23.44;49.31
22917;DHT22;11624;53.250;7.456;2022-10-31T12:44:54;23.60;48.15
22917;DHT22;11624;53.250;7.456;2022-10-31T12:47:51;23.86;47.25
22917;DHT22;11624;53.250;7.456;2022-10-31T12:50:29;24.09;47.09
22917;DHT22;11624;53.250;7.456;2022-10-31T12:53:14;24.30;46.83
22917;DHT22;11624;53.250;7.456;2022-10-31T12:55:58;24.33;46.19
22917;DHT22;11624;53.250;7.456;2022-10-31T12:58:33;24.29;46.09
22917;DHT22;11624;53.250;7.456;2022-10-31T13:01:08;24.50;46.72
22917;DHT22;11624;53.250;7.456;2022-10-31T13:03:44;24.94;46.08
22917;DHT22;11624;53.250;7.456;2022-10-31T13:06:17;25.09;44.67
22917;DHT22;11624;53.250;7.456;2022-10-31T13:08:50;24.98;44.63
22917;DHT22;11624;53.250;7.456;2022-10-31T13:11:22;24.74;44.68
22917;DHT22;11624;53.250;7.456;2022-10-31T13:13:58;24.66;44.96
22917;DHT22;11624;53.250;7.456;2022-10-31T13:16:30;24.49;45.47
22917;DHT22;11624;53.250;7.456;2022-10-31T13:19:02;24.15;45.78
22917;DHT22;11624;53.250;7.456;2022-10-31T13:21:37;24.08;46.70
22917;DHT22;11624;53.250;7.456;2022-10-31T13:24:12;24.03;46.78
22917;DHT22;11624;53.250;7.456;2022-10-31T13:26:43;24.23;46.90
22917;DHT22;11624;53.250;7.456;2022-10-31T13:29:20;24.40;46.61
22917;DHT22;11624;53.250;7.456;2022-10-31T13:31:54;24.59;46.25
22917;DHT22;11624;53.250;7.456;2022-10-31T13:34:27;24.58;45.85
22917;DHT22;11624;53.250;7.456;2022-10-31T13:37:01;24.71;45.83
22917;DHT22;11624;53.250;7.456;2022-10-31T13:39:41;24.92;45.38
22917;DHT22;11624;53.250;7.456;2022-10-31T13:42:17;25.06;44.42
22917;DHT22;11624;53.250;7.456;2022-10-31T13:44:48;25.03;44.61
22917;DHT22;11624;53.250;7.456;2022-10-31T13:47:24;25.14;44.49
22917;DHT22;11624;53.250;7.456;2022-10-31T13:50:04;25.46;43.90
22917;DHT22;11624;53.250;7.456;2022-10-31T13:52:32;25.42;43.00
22917;DHT22;11624;53.250;7.456;2022-10-31T13:55:00;25.30;43.35
22917;DHT22;11624;53.250;7.456;2022-10-31T13:57:31;25.42;42.51
22917;DHT22;11624;53.250;7.456;2022-10-31T14:00:05;25.42;42.29
22917;DHT22;11624;53.250;7.456;2022-10-31T14:02:45;25.27;42.77
22917;DHT22;11624;53.250;7.456;2022-10-31T14:05:22;25.10;42.78
22917;DHT22;11624;53.250;7.456;2022-10-31T14:07:52;24.92;43.89
22917;DHT22;11624;53.250;7.456;2022-10-31T14:10:24;24.94;44.09
22917;DHT22;11624;53.250;7.456;2022-10-31T14:13:03;24.90;43.76
22917;DHT22;11624;53.250;7.456;2022-10-31T14:15:34;24.66;43.96
22917;DHT22;11624;53.250;7.456;2022-10-31T14:18:04;24.49;44.45
22917;DHT22;11624;53.250;7.456;2022-10-31T14:20:36;24.34;44.50
22917;DHT22;11624;53.250;7.456;2022-10-31T14:23:31;24.14;44.54
22917;DHT22;11624;53.250;7.456;2022-10-31T14:26:30;23.99;44.45
22917;DHT22;11624;53.250;7.456;2022-10-31T14:28:59;23.88;44.83
22917;DHT22;11624;53.250;7.456;2022-10-31T14:31:35;23.76;45.06
22917;DHT22;11624;53.250;7.456;2022-10-31T14:34:19;23.61;45.55
22917;DHT22;11624;53.250;7.456;2022-10-31T14:36:58;23.66;45.31
22917;DHT22;11624;53.250;7.456;2022-10-31T14:39:31;23.44;45.83
22917;DHT22;11624;53.250;7.456;2022-10-31T14:42:12;23.27;45.97
22917;DHT22;11624;53.250;7.456;2022-10-31T14:44:54;23.13;46.54
22917;DHT22;11624;53.250;7.456;2022-10-31T14:47:35;23.16;46.53
22917;DHT22;11624;53.250;7.456;2022-10-31T14:50:21;23.10;46.86
22917;DHT22;11624;53.250;7.456;2022-10-31T14:52:53;23.13;47.18
22917;DHT22;11624;53.250;7.456;2022-10-31T14:55:23;23.13;47.34
22917;DHT22;11624;53.250;7.456;2022-10-31T14:57:54;23.11;47.44
22917;DHT22;11624;53.250;7.456;2022-10-31T15:00:23;23.01;47.79
22917;DHT22;11624;53.250;7.456;2022-10-31T15:03:03;22.93;47.86
22917;DHT22;11624;53.250;7.456;2022-10-31T15:05:33;22.77;48.50
22917;DHT22;11624;53.250;7.456;2022-10-31T15:08:02;22.78;48.45
22917;DHT22;11624;53.250;7.456;2022-10-31T15:10:32;22.79;48.38
22917;DHT22;11624;53.250;7.456;2022-10-31T15:13:17;22.70;48.35
22917;DHT22;11624;53.250;7.456;2022-10-31T15:15:45;22.62;48.78
22917;DHT22;11624;53.250;7.456;2022-10-31T15:18:21;22.39;49.31
22917;DHT22;11624;53.250;7.456;2022-10-31T15:20:51;22.29;49.67
22917;DHT22;11624;53.250;7.456;2022-10-31T15:23:23;22.35;49.36
22917;DHT22;11624;53.250;7.456;2022-10-31T15:25:58;22.40;48.95
22917;DHT22;11624;53.250;7.456;2022-10-31T15:28:27;22.39;49.13
22917;DHT22;11624;53.250;7.456;2022-10-31T15:30:57;22.32;49.24
22917;DHT22;11624;53.250;7.456;2022-10-31T15:33:28;22.17;49.56
22917;DHT22;11624;53.250;7.456;2022-10-31T15:36:04;22.13;49.72
22917;DHT22;11624;53.250;7.456;2022-10-31T15:38:38;22.07;49.92
22917;DHT22;11624;53.250;7.456;2022-10-31T15:41:23;22.03;49.85
22917;DHT22;11624;53.250;7.456;2022-10-31T15:43:53;21.99;50.14
22917;DHT22;11624;53.250;7.456;2022-10-31T15:46:22;21.97;50.24
22917;DHT22;11624;53.250;7.456;2022-10-31T15:48:51;21.92;50.36
22917;DHT22;11624;53.250;7.456;2022-10-31T15:51:26;21.85;50.34
22917;DHT22;11624;53.250;7.456;2022-10-31T15:53:55;21.83;50.60
22917;DHT22;11624;53.250;7.456;2022-10-31T15:56:26;21.73;50.89
22917;DHT22;11624;53.250;7.456;2022-10-31T15:58:58;21.53;51.50
22917;DHT22;11624;53.250;7.456;2022-10-31T16:01:28;21.57;51.42
22917;DHT22;11624;53.250;7.456;2022-10-31T16:04:04;21.50;51.30
22917;DHT22;11624;53.250;7.456;2022-10-31T16:06:33;21.44;51.72
22917;DHT22;11624;53.250;7.456;2022-10-31T16:09:02;21.23;52.29
22917;DHT22;11624;53.250;7.456;2022-10-31T16:11:34;21.43;51.64
22917;DHT22;11624;53.250;7.456;2022-10-31T16:14:05;21.43;51.70
22917;DHT22;11624;53.250;7.456;2022-10-31T16:16:41;21.37;51.62
22917;DHT22;11624;53.250;7.456;2022-10-31T16:19:18;21.32;51.85
22917;DHT22;11624;53.250;7.456;2022-10-31T16:21:49;21.15;52.75